createdAt,value
2022-12-26T00:01:46.634Z,98725.00
2022-12-26T00:04:51.869Z,98735.00
2022-12-26T00:07:40.847Z,98731.00
2022-12-26T00:10:28.513Z,98726.00
2022-12-26T00:13:38.798Z,98736.00
2022-12-26T00:16:25.014Z,98736.00
2022-12-26T00:19:14.118Z,98756.00
2022-12-26T00:22:01.932Z,98748.00
2022-12-26T00:24:49.490Z,98755.00
2022-12-26T00:27:36.983Z,98764.00
2022-12-26T00:30:25.906Z,98768.00
2022-12-26T00:33:13.651Z,98770.00
2022-12-26T00:36:11.027Z,98767.00
2022-12-26T00:39:01.844Z,98768.00
2022-12-26T00:41:49.467Z,98760.00
2022-12-26T00:44:37.149Z,98762.00
2022-12-26T00:47:25.093Z,98774.00
2022-12-26T00:50:15.778Z,98767.00
2022-12-26T00:53:03.959Z,98768.00
2022-12-26T00:55:53.019Z,98774.00
2022-12-26T00:58:42.316Z,98779.00
2022-12-26T01:01:31.347Z,98776.00
2022-12-26T01:04:19.351Z,98775.00
2022-12-26T01:07:06.940Z,98784.00
2022-12-26T01:09:54.641Z,98796.00
2022-12-26T01:12:42.497Z,98783.00
2022-12-26T01:15:30.055Z,98809.00
2022-12-26T01:18:18.117Z,98803.00
2022-12-26T01:21:11.623Z,98801.00
2022-12-26T01:23:59.600Z,98800.00
2022-12-26T01:26:47.352Z,98802.00
2022-12-26T01:29:35.188Z,98807.00
2022-12-26T01:32:23.733Z,98803.00
2022-12-26T01:35:11.384Z,98784.00
2022-12-26T01:37:59.249Z,98800.00
2022-12-26T01:40:47.245Z,98795.00
2022-12-26T01:43:49.917Z,98795.00
2022-12-26T01:46:44.793Z,98800.00
2022-12-26T01:49:51.023Z,98813.00
2022-12-26T01:52:47.093Z,98812.00
2022-12-26T01:55:34.819Z,98815.00
2022-12-26T01:58:34.256Z,98822.00
2022-12-26T02:01:27.713Z,98812.00
2022-12-26T02:04:45.259Z,98796.00
2022-12-26T02:07:36.403Z,98812.00
2022-12-26T02:10:26.925Z,98818.00
2022-12-26T02:13:15.757Z,98824.00
2022-12-26T02:16:07.457Z,98816.00
2022-12-26T02:18:55.310Z,98817.00
2022-12-26T02:22:24.555Z,98824.00
2022-12-26T02:26:17.372Z,98806.00
2022-12-26T02:29:16.836Z,98809.00
2022-12-26T02:32:50.709Z,98804.00
2022-12-26T02:35:48.520Z,98809.00
2022-12-26T02:39:45.106Z,98803.00
2022-12-26T02:42:36.065Z,98787.00
2022-12-26T02:46:02.694Z,98786.00
2022-12-26T02:49:11.213Z,98797.00
2022-12-26T02:52:38.124Z,98795.00
2022-12-26T02:55:47.922Z,98797.00
2022-12-26T02:59:19.991Z,98811.00
2022-12-26T03:03:19.884Z,98799.00
2022-12-26T03:06:36.389Z,98797.00
2022-12-26T03:09:52.346Z,98799.00
2022-12-26T03:13:14.630Z,98804.00
2022-12-26T03:16:29.473Z,98796.00
2022-12-26T03:19:19.219Z,98806.00
2022-12-26T03:22:29.220Z,98802.00
2022-12-26T03:26:04.372Z,98800.00
2022-12-26T03:28:52.157Z,98810.00
2022-12-26T03:31:39.665Z,98799.00
2022-12-26T03:34:28.711Z,98794.00
2022-12-26T03:37:57.941Z,98796.00
2022-12-26T03:41:19.256Z,98794.00
2022-12-26T03:44:46.220Z,98798.00
2022-12-26T03:48:31.687Z,98786.00
2022-12-26T03:51:52.473Z,98797.00
2022-12-26T03:55:38.526Z,98785.00
2022-12-26T03:58:56.784Z,98777.00
2022-12-26T04:02:07.828Z,98783.00
2022-12-26T04:05:18.988Z,98779.00
2022-12-26T04:08:40.797Z,98787.00
2022-12-26T04:11:47.870Z,98793.00
2022-12-26T04:15:13.020Z,98782.00
2022-12-26T04:18:34.304Z,98780.00
2022-12-26T04:22:08.360Z,98782.00
2022-12-26T04:25:48.764Z,98779.00
2022-12-26T04:28:57.431Z,98781.00
2022-12-26T04:32:18.405Z,98777.00
2022-12-26T04:35:39.370Z,98777.00
2022-12-26T04:38:54.473Z,98779.00
2022-12-26T04:42:02.781Z,98788.00
2022-12-26T04:44:51.128Z,98787.00
2022-12-26T04:47:58.861Z,98786.00
2022-12-26T04:50:53.763Z,98786.00
2022-12-26T04:53:41.369Z,98782.00
2022-12-26T04:56:29.085Z,98778.00
2022-12-26T04:59:18.149Z,98778.00
2022-12-26T05:02:24.363Z,98784.00
2022-12-26T05:05:30.495Z,98784.00
2022-12-26T05:08:55.431Z,98791.00
2022-12-26T05:11:47.337Z,98771.00
2022-12-26T05:14:36.563Z,98785.00
2022-12-26T05:17:43.160Z,98784.00
2022-12-26T05:20:49.813Z,98784.00
2022-12-26T05:23:56.786Z,98786.00
2022-12-26T05:27:03.408Z,98779.00
2022-12-26T05:29:51.441Z,98786.00
2022-12-26T05:32:57.740Z,98759.00
2022-12-26T05:35:45.489Z,98764.00
2022-12-26T05:38:33.200Z,98772.00
2022-12-26T05:41:20.969Z,98769.00
2022-12-26T05:44:09.973Z,98774.00
2022-12-26T05:46:58.010Z,98784.00
2022-12-26T05:49:45.571Z,98787.00
2022-12-26T05:52:33.229Z,98793.00
2022-12-26T05:55:20.928Z,98794.00
2022-12-26T05:58:08.515Z,98806.00
2022-12-26T06:01:07.071Z,98815.00
2022-12-26T06:03:58.010Z,98804.00
2022-12-26T06:06:45.915Z,98812.00
2022-12-26T06:09:33.666Z,98805.00
2022-12-26T06:12:21.263Z,98812.00
2022-12-26T06:15:10.315Z,98812.00
2022-12-26T06:17:58.173Z,98816.00
2022-12-26T06:20:45.811Z,98815.00
2022-12-26T06:23:35.099Z,98805.00
2022-12-26T06:26:22.799Z,98806.00
2022-12-26T06:29:10.677Z,98812.00
2022-12-26T06:31:58.302Z,98796.00
2022-12-26T06:34:48.045Z,98803.00
2022-12-26T06:37:35.630Z,98797.00
2022-12-26T06:40:23.286Z,98797.00
2022-12-26T06:43:14.006Z,98791.00
2022-12-26T06:46:07.502Z,98794.00
2022-12-26T06:48:55.325Z,98808.00
2022-12-26T06:51:45.197Z,98802.00
2022-12-26T06:54:33.381Z,98805.00
2022-12-26T06:57:21.075Z,98805.00
2022-12-26T07:00:10.166Z,98817.00
2022-12-26T07:02:57.873Z,98824.00
2022-12-26T07:05:45.767Z,98832.00
2022-12-26T07:08:34.545Z,98832.00
2022-12-26T07:11:26.157Z,98842.00
2022-12-26T07:14:14.788Z,98836.00
2022-12-26T07:17:02.643Z,98844.00
2022-12-26T07:19:50.249Z,98853.00
2022-12-26T07:22:40.782Z,98851.00
2022-12-26T07:25:28.364Z,98842.00
2022-12-26T07:28:17.011Z,98853.00
2022-12-26T07:31:05.651Z,98854.00
2022-12-26T07:33:56.257Z,98858.00
2022-12-26T07:36:43.920Z,98859.00
2022-12-26T07:39:31.836Z,98859.00
2022-12-26T07:42:21.722Z,98865.00
2022-12-26T07:45:10.175Z,98865.00
2022-12-26T07:47:59.663Z,98869.00
2022-12-26T07:50:49.550Z,98868.00
2022-12-26T07:53:37.628Z,98867.00
2022-12-26T07:56:25.441Z,98874.00
2022-12-26T07:59:18.310Z,98871.00
2022-12-26T08:02:06.344Z,98879.00
2022-12-26T08:04:54.263Z,98884.00
2022-12-26T08:07:42.430Z,98888.00
2022-12-26T08:10:30.087Z,98882.00
2022-12-26T08:13:18.211Z,98892.00
2022-12-26T08:16:08.914Z,98900.00
2022-12-26T08:18:56.627Z,98892.00
2022-12-26T08:21:44.263Z,98896.00
2022-12-26T08:24:31.916Z,98883.00
2022-12-26T08:27:19.635Z,98893.00
2022-12-26T08:30:08.605Z,98888.00
2022-12-26T08:32:56.300Z,98888.00
2022-12-26T08:35:44.237Z,98896.00
2022-12-26T08:38:33.746Z,98900.00
2022-12-26T08:41:21.736Z,98903.00
2022-12-26T08:44:27.485Z,98881.00
2022-12-26T08:47:16.394Z,98886.00
2022-12-26T08:50:04.316Z,98885.00
2022-12-26T08:52:51.911Z,98880.00
2022-12-26T08:55:42.647Z,98882.00
2022-12-26T08:58:31.113Z,98891.00
2022-12-26T09:01:26.151Z,98884.00
2022-12-26T09:04:14.855Z,98872.00
2022-12-26T09:07:02.467Z,98879.00
2022-12-26T09:09:50.139Z,98884.00
2022-12-26T09:12:37.635Z,98880.00
2022-12-26T09:15:25.337Z,98885.00
2022-12-26T09:18:12.815Z,98880.00
2022-12-26T09:21:02.721Z,98886.00
2022-12-26T09:23:50.940Z,98888.00
2022-12-26T09:26:41.105Z,98885.00
2022-12-26T09:29:28.796Z,98893.00
2022-12-26T09:32:16.400Z,98898.00
2022-12-26T09:35:05.193Z,98894.00
2022-12-26T09:37:52.875Z,98895.00
2022-12-26T09:40:59.080Z,98898.00
2022-12-26T09:44:15.446Z,98902.00
2022-12-26T09:47:38.062Z,98903.00
2022-12-26T09:50:40.963Z,98888.00
2022-12-26T09:53:44.231Z,98881.00
2022-12-26T09:57:01.918Z,98878.00
2022-12-26T10:00:01.555Z,98869.00
2022-12-26T10:03:00.786Z,98866.00
2022-12-26T10:06:24.224Z,98866.00
2022-12-26T10:09:39.536Z,98842.00
2022-12-26T10:12:53.971Z,98850.00
2022-12-26T10:15:47.021Z,98842.00
2022-12-26T10:19:03.226Z,98841.00
2022-12-26T10:22:15.821Z,98817.00
2022-12-26T10:25:16.473Z,98817.00
2022-12-26T10:28:09.021Z,98823.00
2022-12-26T10:31:01.840Z,98825.00
2022-12-26T10:34:44.554Z,98822.00
2022-12-26T10:37:53.793Z,98815.00
2022-12-26T10:40:47.180Z,98822.00
2022-12-26T10:43:35.941Z,98824.00
2022-12-26T10:46:56.178Z,98824.00
2022-12-26T10:49:47.583Z,98821.00
2022-12-26T10:52:44.120Z,98813.00
2022-12-26T10:55:35.480Z,98810.00
2022-12-26T10:58:33.924Z,98808.00
2022-12-26T11:01:47.760Z,98803.00
2022-12-26T11:05:10.459Z,98802.00
2022-12-26T11:08:27.378Z,98805.00
2022-12-26T11:11:46.267Z,98785.00
2022-12-26T11:14:44.752Z,98784.00
2022-12-26T11:17:40.585Z,98779.00
2022-12-26T11:20:31.457Z,98779.00
2022-12-26T11:23:34.184Z,98778.00
2022-12-26T11:26:31.091Z,98781.00
2022-12-26T11:29:24.553Z,98774.00
2022-12-26T11:32:20.500Z,98792.00
2022-12-26T11:35:20.406Z,98765.00
2022-12-26T11:38:39.091Z,98786.00
2022-12-26T11:41:41.797Z,98767.00
2022-12-26T11:44:34.896Z,98782.00
2022-12-26T11:47:28.450Z,98748.00
2022-12-26T11:50:21.751Z,98766.00
2022-12-26T11:53:18.940Z,98754.00
2022-12-26T11:56:09.008Z,98757.00
2022-12-26T11:59:19.176Z,98749.00
2022-12-26T12:02:32.726Z,98742.00
2022-12-26T12:05:31.976Z,98752.00
2022-12-26T12:08:37.734Z,98741.00
2022-12-26T12:11:54.713Z,98743.00
2022-12-26T12:15:24.265Z,98736.00
2022-12-26T12:18:45.702Z,98736.00
2022-12-26T12:22:13.307Z,98728.00
2022-12-26T12:25:40.236Z,98736.00
2022-12-26T12:28:49.568Z,98733.00
2022-12-26T12:32:02.737Z,98726.00
2022-12-26T12:35:20.556Z,98720.00
2022-12-26T12:38:50.259Z,98719.00
2022-12-26T12:42:31.157Z,98716.00
2022-12-26T12:45:32.625Z,98710.00
2022-12-26T12:48:54.992Z,98699.00
2022-12-26T12:52:13.454Z,98703.00
2022-12-26T12:55:28.727Z,98706.00
2022-12-26T12:58:46.215Z,98711.00
2022-12-26T13:01:45.066Z,98708.00
2022-12-26T13:04:45.872Z,98709.00
2022-12-26T13:07:47.378Z,98710.00
2022-12-26T13:10:51.979Z,98702.00
2022-12-26T13:14:01.748Z,98696.00
2022-12-26T13:17:16.154Z,98683.00
2022-12-26T13:20:25.187Z,98690.00
2022-12-26T13:23:58.948Z,98698.00
2022-12-26T13:27:05.316Z,98679.00
2022-12-26T13:29:53.959Z,98678.00
2022-12-26T13:32:44.879Z,98673.00
2022-12-26T13:36:07.001Z,98690.00
2022-12-26T13:39:01.572Z,98691.00
2022-12-26T13:42:19.721Z,98696.00
2022-12-26T13:45:37.687Z,98707.00
2022-12-26T13:48:29.694Z,98702.00
2022-12-26T13:51:50.420Z,98712.00
2022-12-26T13:54:48.314Z,98718.00
2022-12-26T13:57:45.964Z,98732.00
2022-12-26T14:00:48.352Z,98742.00
2022-12-26T14:03:55.665Z,98757.00
2022-12-26T14:07:29.823Z,98763.00
2022-12-26T14:10:49.025Z,98763.00
2022-12-26T14:13:55.167Z,98768.00
2022-12-26T14:17:10.304Z,98774.00
2022-12-26T14:20:08.398Z,98782.00
2022-12-26T14:23:46.548Z,98791.00
2022-12-26T14:26:52.066Z,98800.00
2022-12-26T14:29:42.692Z,98793.00
2022-12-26T14:33:30.378Z,98800.00
2022-12-26T14:36:50.168Z,98824.00
2022-12-26T14:40:27.516Z,98827.00
2022-12-26T14:43:17.948Z,98839.00
2022-12-26T14:46:30.543Z,98832.00
2022-12-26T14:49:40.877Z,98826.00
2022-12-26T14:52:40.751Z,98826.00
2022-12-26T14:55:56.399Z,98842.00
2022-12-26T14:58:53.000Z,98853.00
2022-12-26T15:01:50.403Z,98863.00
2022-12-26T15:04:44.040Z,98867.00
2022-12-26T15:07:46.911Z,98877.00
2022-12-26T15:11:08.145Z,98878.00
2022-12-26T15:14:34.125Z,98890.00
2022-12-26T15:17:53.306Z,98884.00
2022-12-26T15:21:22.229Z,98883.00
2022-12-26T15:25:20.798Z,98881.00
2022-12-26T15:28:23.103Z,98880.00
2022-12-26T15:31:38.075Z,98885.00
2022-12-26T15:35:01.767Z,98892.00
2022-12-26T15:38:19.255Z,98899.00
2022-12-26T15:41:26.711Z,98890.00
2022-12-26T15:44:37.800Z,98905.00
2022-12-26T15:47:49.270Z,98909.00
2022-12-26T15:54:49.100Z,98916.00
2022-12-26T15:57:50.511Z,98910.00
2022-12-26T16:00:53.309Z,98910.00
2022-12-26T16:04:18.314Z,98923.00
2022-12-26T16:08:02.541Z,98920.00
2022-12-26T16:11:08.561Z,98918.00
2022-12-26T16:14:05.345Z,98917.00
2022-12-26T16:16:53.191Z,98911.00
2022-12-26T16:19:44.325Z,98917.00
2022-12-26T16:22:45.915Z,98931.00
2022-12-26T16:25:37.844Z,98926.00
2022-12-26T16:28:32.690Z,98937.00
2022-12-26T16:31:25.700Z,98945.00
2022-12-26T16:34:21.490Z,98957.00
2022-12-26T16:37:18.465Z,98950.00
2022-12-26T16:40:16.086Z,98954.00
2022-12-26T16:43:22.143Z,98954.00
2022-12-26T16:46:13.559Z,98947.00
2022-12-26T16:49:02.397Z,98941.00
2022-12-26T16:51:51.933Z,98949.00
2022-12-26T16:54:42.525Z,98937.00
2022-12-26T16:57:30.264Z,98933.00
2022-12-26T17:00:21.351Z,98933.00
2022-12-26T17:03:51.304Z,98920.00
2022-12-26T17:07:05.287Z,98920.00
2022-12-26T17:10:00.487Z,98928.00
2022-12-26T17:12:48.954Z,98924.00
2022-12-26T17:15:54.371Z,98919.00
2022-12-26T17:18:48.073Z,98917.00
2022-12-26T17:21:35.907Z,98919.00
2022-12-26T17:24:27.689Z,98918.00
2022-12-26T17:27:25.903Z,98921.00
2022-12-26T17:30:32.411Z,98926.00
2022-12-26T17:33:29.309Z,98931.00
2022-12-26T17:39:27.727Z,98932.00
2022-12-26T17:42:15.815Z,98924.00
2022-12-26T17:45:03.540Z,98911.00
2022-12-26T17:47:53.991Z,98909.00
2022-12-26T17:50:45.855Z,98915.00
2022-12-26T17:53:36.668Z,98911.00
2022-12-26T17:56:27.339Z,98913.00
2022-12-26T17:59:15.158Z,98912.00
2022-12-26T18:02:02.753Z,98910.00
2022-12-26T18:04:51.162Z,98912.00
2022-12-26T18:07:39.370Z,98905.00
2022-12-26T18:10:34.546Z,98902.00
2022-12-26T18:13:22.136Z,98884.00
2022-12-26T18:16:17.459Z,98885.00
2022-12-26T18:19:05.153Z,98886.00
2022-12-26T18:21:52.669Z,98887.00
2022-12-26T18:24:40.531Z,98888.00
2022-12-26T18:27:33.622Z,98873.00
2022-12-26T18:30:24.926Z,98860.00
2022-12-26T18:33:13.785Z,98854.00
2022-12-26T18:36:07.239Z,98850.00
2022-12-26T18:38:55.056Z,98863.00
2022-12-26T18:41:43.523Z,98874.00
2022-12-26T18:44:31.124Z,98887.00
2022-12-26T18:47:21.920Z,98890.00
2022-12-26T18:50:15.831Z,98884.00
2022-12-26T18:53:03.647Z,98873.00
2022-12-26T18:55:51.373Z,98872.00
2022-12-26T18:58:38.921Z,98880.00
2022-12-26T19:01:26.966Z,98892.00
2022-12-26T19:04:17.922Z,98886.00
2022-12-26T19:07:05.461Z,98898.00
2022-12-26T19:09:55.832Z,98888.00
2022-12-26T19:12:44.234Z,98879.00
2022-12-26T19:15:36.538Z,98879.00
2022-12-26T19:18:24.092Z,98882.00
2022-12-26T19:21:16.543Z,98881.00
2022-12-26T19:24:04.318Z,98915.00
2022-12-26T19:26:51.861Z,98910.00
2022-12-26T19:29:39.369Z,98910.00
2022-12-26T19:32:27.016Z,98922.00
2022-12-26T19:35:16.160Z,98918.00
2022-12-26T19:38:04.029Z,98924.00
2022-12-26T19:40:51.511Z,98919.00
2022-12-26T19:43:40.797Z,98916.00
2022-12-26T19:46:28.984Z,98920.00
2022-12-26T19:49:16.570Z,98917.00
2022-12-26T19:52:04.432Z,98911.00
2022-12-26T19:54:52.190Z,98906.00
2022-12-26T19:57:39.705Z,98885.00
2022-12-26T20:00:27.243Z,98881.00
2022-12-26T20:03:14.774Z,98873.00
2022-12-26T20:06:20.053Z,98869.00
2022-12-26T20:09:11.381Z,98878.00
2022-12-26T20:11:58.941Z,98885.00
2022-12-26T20:14:46.508Z,98887.00
2022-12-26T20:17:34.245Z,98870.00
2022-12-26T20:20:22.580Z,98879.00
2022-12-26T20:23:10.113Z,98883.00
2022-12-26T20:26:07.016Z,98884.00
2022-12-26T20:29:01.900Z,98883.00
2022-12-26T20:31:50.039Z,98879.00
2022-12-26T20:34:37.839Z,98888.00
2022-12-26T20:37:26.310Z,98888.00
2022-12-26T20:40:13.902Z,98883.00
2022-12-26T20:43:01.457Z,98883.00
2022-12-26T20:45:48.997Z,98883.00
2022-12-26T20:48:37.320Z,98883.00
2022-12-26T20:51:36.579Z,98873.00
2022-12-26T20:54:26.265Z,98893.00
2022-12-26T20:57:13.734Z,98909.00
2022-12-26T21:00:01.301Z,98908.00
2022-12-26T21:02:49.017Z,98890.00
2022-12-26T21:05:36.832Z,98895.00
2022-12-26T21:08:24.375Z,98889.00
2022-12-26T21:11:20.220Z,98886.00
2022-12-26T21:14:15.527Z,98879.00
2022-12-26T21:17:03.079Z,98885.00
2022-12-26T21:19:50.630Z,98879.00
2022-12-26T21:22:38.160Z,98886.00
2022-12-26T21:25:25.779Z,98887.00
2022-12-26T21:28:13.320Z,98890.00
2022-12-26T21:31:02.038Z,98881.00
2022-12-26T21:33:49.779Z,98885.00
2022-12-26T21:36:39.132Z,98896.00
2022-12-26T21:39:26.564Z,98893.00
2022-12-26T21:42:14.458Z,98885.00
2022-12-26T21:45:02.212Z,98889.00
2022-12-26T21:47:49.796Z,98880.00
2022-12-26T21:50:37.682Z,98882.00
2022-12-26T21:53:25.263Z,98874.00
2022-12-26T21:56:16.379Z,98865.00
2022-12-26T21:59:22.559Z,98859.00
2022-12-26T22:02:34.664Z,98852.00
2022-12-26T22:05:27.002Z,98853.00
2022-12-26T22:08:15.287Z,98845.00
2022-12-26T22:11:21.249Z,98850.00
2022-12-26T22:14:08.794Z,98849.00
2022-12-26T22:16:57.817Z,98836.00
2022-12-26T22:19:45.316Z,98838.00
2022-12-26T22:22:32.914Z,98836.00
2022-12-26T22:25:20.535Z,98844.00
2022-12-26T22:28:08.111Z,98837.00
2022-12-26T22:30:55.746Z,98845.00
2022-12-26T22:33:43.284Z,98854.00
2022-12-26T22:36:33.577Z,98844.00
2022-12-26T22:39:21.068Z,98841.00
2022-12-26T22:42:08.592Z,98853.00
2022-12-26T22:44:57.470Z,98874.00
2022-12-26T22:47:44.973Z,98888.00
2022-12-26T22:50:32.550Z,98889.00
2022-12-26T22:53:23.452Z,98916.00
2022-12-26T22:56:12.412Z,98924.00
2022-12-26T22:59:00.845Z,98916.00
2022-12-26T23:01:48.530Z,98931.00
2022-12-26T23:04:36.871Z,98935.00
2022-12-26T23:07:25.318Z,98926.00
2022-12-26T23:10:22.921Z,98932.00
2022-12-26T23:13:15.769Z,98929.00
2022-12-26T23:16:37.839Z,98932.00
2022-12-26T23:20:01.910Z,98929.00
2022-12-26T23:22:50.095Z,98918.00
2022-12-26T23:25:39.036Z,98933.00
2022-12-26T23:28:44.929Z,98926.00
2022-12-26T23:31:32.528Z,98933.00
2022-12-26T23:34:20.550Z,98945.00
2022-12-26T23:37:08.135Z,98936.00
2022-12-26T23:39:55.729Z,98941.00
2022-12-26T23:42:43.810Z,98944.00
2022-12-26T23:45:31.325Z,98954.00
2022-12-26T23:48:18.952Z,98948.00
2022-12-26T23:51:08.365Z,98946.00
2022-12-26T23:53:56.063Z,98949.00
2022-12-26T23:56:43.647Z,98961.00
2022-12-26T23:59:31.302Z,98968.00
